createdAt,value
2017-10-13T00:01:50.248Z,6.87
2017-10-13T00:04:24.107Z,24.83
2017-10-13T00:06:59.746Z,10.45
2017-10-13T00:09:33.427Z,6.82
2017-10-13T00:12:08.266Z,8.57
2017-10-13T00:14:42.101Z,9.57
2017-10-13T00:17:16.774Z,8.57
2017-10-13T00:19:50.575Z,8.35
2017-10-13T00:22:24.377Z,4.68
2017-10-13T00:24:58.192Z,30.95
2017-10-13T00:27:31.991Z,28.92
2017-10-13T00:30:05.714Z,54.83
2017-10-13T00:32:39.531Z,24.33
2017-10-13T00:35:13.314Z,90.47
2017-10-13T00:37:47.978Z,38.03
2017-10-13T00:40:21.897Z,81.80
2017-10-13T00:42:55.935Z,56.08
2017-10-13T00:45:29.948Z,21.80
2017-10-13T00:48:04.507Z,74.07
2017-10-13T00:50:38.663Z,59.40
2017-10-13T00:53:12.626Z,50.90
2017-10-13T00:55:46.525Z,56.65
2017-10-13T00:58:20.345Z,71.60
2017-10-13T01:00:54.936Z,94.53
2017-10-13T01:03:29.128Z,41.75
2017-10-13T01:06:03.005Z,43.70
2017-10-13T01:08:36.992Z,67.28
2017-10-13T01:11:11.645Z,64.72
2017-10-13T01:13:45.655Z,82.93
2017-10-13T01:16:20.241Z,29.98
2017-10-13T01:18:54.165Z,52.13
2017-10-13T01:21:27.912Z,61.60
2017-10-13T01:24:01.866Z,25.40
2017-10-13T01:26:35.788Z,42.33
2017-10-13T01:29:09.581Z,25.02
2017-10-13T01:31:44.254Z,58.60
2017-10-13T01:34:18.637Z,56.67
2017-10-13T01:36:52.597Z,62.85
2017-10-13T01:39:26.515Z,96.50
2017-10-13T01:42:01.126Z,29.48
2017-10-13T01:44:34.966Z,53.47
2017-10-13T01:47:08.801Z,57.25
2017-10-13T01:49:42.787Z,24.42
2017-10-13T01:52:16.638Z,38.05
2017-10-13T01:54:50.471Z,61.17
2017-10-13T01:57:24.322Z,32.92
2017-10-13T01:59:58.143Z,24.12
2017-10-13T02:02:32.509Z,39.50
2017-10-13T02:05:06.412Z,26.55
2017-10-13T02:07:40.160Z,24.58
2017-10-13T02:10:13.894Z,31.10
2017-10-13T02:12:47.974Z,47.90
2017-10-13T02:15:21.835Z,54.85
2017-10-13T02:17:55.728Z,60.05
2017-10-13T02:20:29.938Z,14.75
2017-10-13T02:23:03.870Z,15.07
2017-10-13T02:25:37.709Z,12.45
2017-10-13T02:28:11.490Z,22.10
2017-10-13T02:30:45.436Z,40.00
2017-10-13T02:33:19.316Z,41.67
2017-10-13T02:35:54.859Z,38.75
2017-10-13T02:38:29.416Z,39.70
2017-10-13T02:41:03.353Z,28.62
2017-10-13T02:43:37.299Z,18.30
2017-10-13T02:46:11.154Z,18.08
2017-10-13T02:48:44.732Z,20.90
2017-10-13T02:51:18.625Z,44.97
2017-10-13T02:53:52.459Z,27.25
2017-10-13T02:56:27.129Z,20.45
2017-10-13T02:59:01.137Z,46.15
2017-10-13T03:01:34.989Z,32.08
2017-10-13T03:04:08.727Z,25.95
2017-10-13T03:06:42.742Z,35.25
2017-10-13T03:09:16.619Z,20.60
2017-10-13T03:11:50.390Z,28.00
2017-10-13T03:14:24.099Z,55.03
2017-10-13T03:16:57.935Z,34.72
2017-10-13T03:19:31.896Z,18.12
2017-10-13T03:22:05.685Z,44.72
2017-10-13T03:24:39.740Z,65.70
2017-10-13T03:27:14.636Z,35.05
2017-10-13T03:29:48.796Z,48.92
2017-10-13T03:32:23.378Z,19.80
2017-10-13T03:34:57.128Z,60.75
2017-10-13T03:37:31.849Z,29.90
2017-10-13T03:40:05.681Z,85.57
2017-10-13T03:42:39.366Z,37.20
2017-10-13T03:45:14.187Z,30.95
2017-10-13T03:47:48.160Z,29.90
2017-10-13T03:50:21.957Z,15.50
2017-10-13T03:52:56.729Z,26.37
2017-10-13T03:55:30.579Z,27.73
2017-10-13T03:58:04.440Z,76.05
2017-10-13T04:00:38.509Z,54.47
2017-10-13T04:03:12.274Z,46.33
2017-10-13T04:05:46.136Z,35.92
2017-10-13T04:08:20.031Z,25.92
2017-10-13T04:10:54.689Z,37.72
2017-10-13T04:13:28.484Z,31.45
2017-10-13T04:16:02.432Z,40.55
2017-10-13T04:18:36.543Z,70.00
2017-10-13T04:21:10.672Z,18.62
2017-10-13T04:23:45.388Z,54.58
2017-10-13T04:26:19.362Z,63.28
2017-10-13T04:28:53.199Z,81.28
2017-10-13T04:31:27.184Z,57.20
2017-10-13T04:34:01.147Z,44.60
2017-10-13T04:36:34.997Z,38.50
2017-10-13T04:39:08.769Z,57.97
2017-10-13T04:41:43.450Z,64.50
2017-10-13T04:44:17.288Z,47.70
2017-10-13T04:46:51.090Z,23.27
2017-10-13T04:49:25.082Z,16.27
2017-10-13T04:51:58.893Z,36.88
2017-10-13T04:54:32.737Z,55.55
2017-10-13T04:57:06.596Z,25.05
2017-10-13T04:59:40.670Z,93.90
2017-10-13T05:02:14.470Z,26.48
2017-10-13T05:04:48.566Z,94.93
2017-10-13T05:07:22.403Z,99.97
2017-10-13T05:09:56.692Z,59.88
2017-10-13T05:12:30.950Z,46.83
2017-10-13T05:15:05.208Z,25.12
2017-10-13T05:17:40.523Z,87.43
2017-10-13T05:20:14.677Z,48.35
2017-10-13T05:22:48.982Z,19.48
2017-10-13T05:25:23.139Z,94.85
2017-10-13T05:27:56.938Z,56.33
2017-10-13T05:30:31.575Z,72.22
2017-10-13T05:33:05.531Z,38.70
2017-10-13T05:35:39.344Z,43.25
2017-10-13T05:38:13.173Z,44.72
2017-10-13T05:40:47.035Z,51.17
2017-10-13T05:43:20.828Z,43.35
2017-10-13T05:45:55.675Z,26.62
2017-10-13T05:48:30.660Z,39.90
2017-10-13T05:51:05.729Z,29.87
2017-10-13T05:53:39.835Z,23.23
2017-10-13T05:56:13.853Z,53.38
2017-10-13T05:58:49.002Z,22.17
2017-10-13T06:01:23.178Z,20.15
2017-10-13T06:03:57.347Z,22.55
2017-10-13T06:06:32.649Z,10.98
2017-10-13T06:09:07.469Z,9.57
2017-10-13T06:11:41.520Z,10.25
2017-10-13T06:14:15.740Z,14.43
2017-10-13T06:16:49.540Z,9.38
2017-10-13T06:19:23.490Z,25.00
2017-10-13T06:21:57.497Z,14.87
2017-10-13T06:24:31.919Z,17.33
2017-10-13T06:27:05.739Z,22.58
2017-10-13T06:29:42.961Z,30.33
2017-10-13T06:32:17.430Z,22.42
2017-10-13T06:34:54.186Z,26.95
2017-10-13T06:37:28.325Z,47.78
2017-10-13T06:40:03.387Z,42.60
2017-10-13T06:42:37.225Z,20.77
2017-10-13T06:45:11.044Z,21.48
2017-10-13T06:47:45.525Z,15.63
2017-10-13T06:50:19.893Z,15.15
2017-10-13T06:52:56.275Z,17.70
2017-10-13T06:55:30.442Z,16.85
2017-10-13T06:58:04.694Z,15.80
2017-10-13T07:00:38.840Z,21.75
2017-10-13T07:03:13.169Z,12.40
2017-10-13T07:05:48.095Z,16.83
2017-10-13T07:08:22.506Z,21.60
2017-10-13T07:10:56.968Z,22.08
2017-10-13T07:13:32.529Z,23.75
2017-10-13T07:16:06.245Z,13.80
2017-10-13T07:18:41.112Z,11.40
2017-10-13T07:21:15.720Z,20.83
2017-10-13T07:23:50.293Z,16.30
2017-10-13T07:26:25.267Z,14.57
2017-10-13T07:28:59.474Z,21.35
2017-10-13T07:31:33.333Z,17.37
2017-10-13T07:34:08.087Z,23.90
2017-10-13T07:36:42.756Z,15.55
2017-10-13T07:39:17.791Z,23.70
2017-10-13T07:41:52.413Z,24.48
2017-10-13T07:44:26.240Z,23.05
2017-10-13T07:47:00.467Z,25.25
2017-10-13T07:49:35.532Z,22.27
2017-10-13T07:52:10.192Z,35.60
2017-10-13T07:54:44.973Z,20.73
2017-10-13T07:57:18.938Z,27.50
2017-10-13T07:59:54.020Z,27.27
2017-10-13T08:02:28.180Z,28.15
2017-10-13T08:05:02.277Z,28.80
2017-10-13T08:07:36.053Z,35.90
2017-10-13T08:10:10.041Z,19.75
2017-10-13T08:12:45.403Z,19.80
2017-10-13T08:15:19.707Z,16.02
2017-10-13T08:17:56.719Z,59.75
2017-10-13T08:20:32.485Z,29.90
2017-10-13T08:23:18.926Z,73.90
2017-10-13T08:25:52.993Z,22.45
2017-10-13T08:28:28.789Z,37.03
2017-10-13T08:31:02.933Z,26.23
2017-10-13T08:33:45.367Z,42.28
2017-10-13T08:36:20.928Z,15.45
2017-10-13T08:38:56.051Z,49.75
2017-10-13T08:41:32.184Z,28.67
2017-10-13T08:46:52.128Z,6.20
2017-10-13T08:49:30.999Z,13.77
2017-10-13T08:52:13.805Z,10.80
2017-10-13T08:57:35.264Z,14.43
2017-10-13T09:00:17.204Z,5.45
2017-10-13T09:02:53.451Z,11.05
2017-10-13T09:05:29.872Z,9.23
2017-10-13T09:08:13.304Z,5.30
2017-10-13T09:10:49.294Z,5.47
2017-10-13T09:13:32.102Z,6.87
2017-10-13T09:16:09.119Z,7.47
2017-10-13T09:18:44.905Z,5.55
2017-10-13T09:21:19.409Z,11.07
2017-10-13T09:23:58.181Z,4.10
2017-10-13T09:26:34.456Z,5.40
2017-10-13T09:29:10.903Z,10.30
2017-10-13T09:31:46.839Z,6.78
2017-10-13T09:41:49.949Z,6.90
2017-10-13T09:44:28.880Z,6.07
2017-10-13T09:47:08.258Z,7.93
2017-10-13T09:49:42.374Z,6.87
2017-10-13T09:52:16.839Z,4.28
2017-10-13T09:54:51.172Z,3.70
2017-10-13T09:57:25.536Z,5.32
2017-10-13T09:59:59.436Z,5.85
2017-10-13T10:02:33.162Z,5.40
2017-10-13T10:05:07.746Z,8.52
2017-10-13T10:07:42.091Z,9.50
2017-10-13T10:10:18.002Z,8.10
2017-10-13T10:12:52.129Z,10.20
2017-10-13T10:15:26.314Z,4.25
2017-10-13T10:18:00.189Z,5.97
2017-10-13T10:20:34.017Z,6.20
2017-10-13T10:23:07.790Z,6.10
2017-10-13T10:25:41.574Z,7.10
2017-10-13T10:28:15.364Z,4.05
2017-10-13T10:30:49.065Z,5.60
2017-10-13T10:33:23.001Z,8.85
2017-10-13T10:35:56.870Z,5.43
2017-10-13T10:38:30.855Z,7.20
2017-10-13T10:41:04.826Z,5.00
2017-10-13T10:43:38.620Z,4.07
2017-10-13T10:46:13.228Z,9.55
2017-10-13T10:48:46.993Z,3.92
2017-10-13T10:51:20.931Z,8.35
2017-10-13T10:53:54.826Z,6.07
2017-10-13T10:56:28.790Z,4.15
2017-10-13T10:59:02.616Z,5.12
2017-10-13T11:01:36.430Z,15.63
2017-10-13T11:04:10.177Z,7.68
2017-10-13T11:06:44.154Z,7.72
2017-10-13T11:09:18.079Z,5.85
2017-10-13T11:11:52.002Z,5.47
2017-10-13T11:14:25.870Z,8.20
2017-10-13T11:16:59.568Z,9.38
2017-10-13T11:19:33.419Z,5.05
2017-10-13T11:22:07.324Z,10.55
2017-10-13T11:24:41.156Z,6.30
2017-10-13T11:27:15.007Z,6.55
2017-10-13T11:29:48.956Z,6.55
2017-10-13T11:32:22.934Z,4.35
2017-10-13T11:34:56.883Z,6.97
2017-10-13T11:37:30.935Z,13.32
2017-10-13T11:40:04.800Z,8.82
2017-10-13T11:42:38.584Z,5.57
2017-10-13T11:45:14.017Z,6.78
2017-10-13T11:47:47.876Z,5.00
2017-10-13T11:50:22.626Z,9.55
2017-10-13T11:52:57.342Z,6.10
2017-10-13T11:55:32.473Z,7.57
2017-10-13T11:58:06.442Z,4.60
2017-10-13T12:00:40.273Z,4.10
2017-10-13T12:03:14.076Z,7.70
2017-10-13T12:05:47.884Z,4.47
2017-10-13T12:08:21.703Z,4.70
2017-10-13T12:10:56.413Z,3.97
2017-10-13T12:13:31.088Z,10.60
2017-10-13T12:16:06.055Z,7.72
2017-10-13T12:18:40.034Z,4.85
2017-10-13T12:21:13.975Z,9.50
2017-10-13T12:23:47.780Z,5.80
2017-10-13T12:26:22.429Z,5.93
2017-10-13T12:28:56.256Z,3.53
2017-10-13T12:31:30.406Z,6.75
2017-10-13T12:34:05.084Z,5.30
2017-10-13T12:36:39.719Z,4.32
2017-10-13T12:39:13.970Z,12.20
2017-10-13T12:41:47.925Z,7.18
2017-10-13T12:44:21.763Z,8.32
2017-10-13T12:46:55.892Z,6.32
2017-10-13T12:49:29.776Z,12.20
2017-10-13T12:52:03.706Z,5.95
2017-10-13T12:54:37.735Z,4.80
2017-10-13T12:57:11.528Z,4.03
2017-10-13T12:59:45.530Z,4.95
2017-10-13T13:02:19.409Z,5.20
2017-10-13T13:04:53.342Z,6.45
2017-10-13T13:07:27.172Z,5.68
2017-10-13T13:10:01.016Z,6.32
2017-10-13T13:12:35.110Z,4.12
2017-10-13T13:15:09.211Z,6.35
2017-10-13T13:17:44.140Z,5.25
2017-10-13T13:20:18.899Z,8.10
2017-10-13T13:22:53.944Z,7.53
2017-10-13T13:25:27.999Z,14.50
2017-10-13T13:28:02.218Z,4.20
2017-10-13T13:30:36.308Z,3.22
2017-10-13T13:33:09.994Z,5.97
2017-10-13T13:35:44.504Z,5.90
2017-10-13T13:38:18.470Z,5.90
2017-10-13T13:40:52.603Z,5.25
2017-10-13T13:43:27.740Z,7.05
2017-10-13T13:46:03.143Z,4.35
2017-10-13T13:48:37.617Z,10.82
2017-10-13T13:51:12.246Z,8.05
2017-10-13T13:53:47.138Z,3.30
2017-10-13T13:56:22.125Z,6.07
2017-10-13T13:58:56.433Z,7.55
2017-10-13T14:01:30.463Z,5.62
2017-10-13T14:04:05.190Z,5.10
2017-10-13T14:06:39.429Z,3.90
2017-10-13T14:09:14.510Z,8.65
2017-10-13T14:11:48.838Z,7.95
2017-10-13T14:14:23.008Z,12.10
2017-10-13T14:16:59.724Z,4.50
2017-10-13T14:19:33.814Z,9.23
2017-10-13T14:22:07.723Z,8.73
2017-10-13T14:24:41.982Z,3.78
2017-10-13T14:27:16.341Z,5.50
2017-10-13T14:29:50.463Z,6.22
2017-10-13T14:32:25.357Z,5.25
2017-10-13T14:35:01.260Z,4.22
2017-10-13T14:37:35.410Z,9.50
2017-10-13T14:40:09.552Z,7.00
2017-10-13T14:42:43.442Z,11.82
2017-10-13T14:45:18.756Z,14.38
2017-10-13T14:47:52.949Z,6.45
2017-10-13T14:50:27.040Z,7.97
2017-10-13T14:53:01.317Z,7.85
2017-10-13T14:55:35.292Z,4.90
2017-10-13T14:58:09.492Z,16.83
2017-10-13T15:00:44.214Z,8.38
2017-10-13T15:03:19.053Z,5.80
2017-10-13T15:05:55.405Z,4.53
2017-10-13T15:08:30.356Z,7.70
2017-10-13T15:11:04.530Z,3.80
2017-10-13T15:13:38.521Z,8.70
2017-10-13T15:16:12.415Z,10.60
2017-10-13T15:18:46.634Z,3.95
2017-10-13T15:21:21.293Z,4.20
2017-10-13T15:23:55.297Z,11.07
2017-10-13T15:26:32.097Z,5.47
2017-10-13T15:29:12.167Z,4.30
2017-10-13T15:31:51.752Z,7.28
2017-10-13T15:34:32.113Z,6.32
2017-10-13T15:37:06.313Z,5.50
2017-10-13T15:39:45.826Z,3.75
2017-10-13T15:42:25.583Z,5.32
2017-10-13T15:45:00.376Z,7.05
2017-10-13T15:47:39.905Z,6.70
2017-10-13T16:03:39.871Z,6.68
2017-10-13T16:06:14.310Z,10.55
2017-10-13T16:08:48.098Z,4.30
2017-10-13T16:11:22.135Z,10.65
2017-10-13T16:13:55.909Z,13.68
2017-10-13T16:16:29.908Z,11.38
2017-10-13T16:19:03.813Z,15.77
2017-10-13T16:21:37.737Z,30.45
2017-10-13T16:24:11.922Z,33.80
2017-10-13T16:26:45.807Z,24.75
2017-10-13T16:29:20.617Z,19.40
2017-10-13T16:31:55.389Z,12.48
2017-10-13T16:34:29.215Z,16.52
2017-10-13T16:37:03.866Z,19.58
2017-10-13T16:39:38.013Z,11.32
2017-10-13T16:42:12.176Z,10.95
2017-10-13T16:44:46.324Z,19.95
2017-10-13T16:47:20.846Z,7.95
2017-10-13T16:49:55.787Z,7.35
2017-10-13T16:52:31.213Z,6.53
2017-10-13T16:55:05.118Z,8.90
2017-10-13T16:57:42.184Z,12.02
2017-10-13T17:00:17.789Z,14.65
2017-10-13T17:02:54.382Z,7.85
2017-10-13T17:05:28.529Z,8.77
2017-10-13T17:08:02.382Z,10.98
2017-10-13T17:10:36.555Z,15.70
2017-10-13T17:13:10.735Z,15.30
2017-10-13T17:15:47.351Z,15.32
2017-10-13T17:18:24.670Z,17.45
2017-10-13T17:21:06.593Z,20.48
2017-10-13T17:23:41.233Z,27.15
2017-10-13T17:26:16.322Z,30.55
2017-10-13T17:28:51.456Z,27.95
2017-10-13T17:31:25.383Z,26.60
2017-10-13T17:34:00.399Z,25.10
2017-10-13T17:36:35.265Z,11.82
2017-10-13T17:39:09.244Z,11.40
2017-10-13T17:41:43.295Z,10.23
2017-10-13T17:44:17.270Z,11.65
2017-10-13T17:46:51.183Z,14.38
2017-10-13T17:49:26.012Z,12.35
2017-10-13T17:52:00.513Z,12.45
2017-10-13T17:54:34.415Z,12.85
2017-10-13T17:57:08.535Z,10.40
2017-10-13T17:59:42.565Z,26.25
2017-10-13T18:02:17.468Z,19.00
2017-10-13T18:04:51.635Z,19.77
2017-10-13T18:07:25.647Z,15.70
2017-10-13T18:10:00.323Z,17.75
2017-10-13T18:12:34.338Z,18.15
2017-10-13T18:15:08.664Z,18.40
2017-10-13T18:17:43.212Z,22.67
2017-10-13T18:20:17.195Z,18.42
2017-10-13T18:22:51.914Z,19.90
2017-10-13T18:25:25.908Z,14.60
2017-10-13T18:27:59.841Z,13.20
2017-10-13T18:30:33.955Z,18.60
2017-10-13T18:33:07.921Z,19.10
2017-10-13T18:35:43.380Z,16.12
2017-10-13T18:38:18.311Z,13.10
2017-10-13T18:40:52.176Z,11.82
2017-10-13T18:43:27.282Z,21.48
2017-10-13T18:46:01.181Z,13.32
2017-10-13T18:48:35.092Z,11.95
2017-10-13T18:51:08.942Z,8.95
2017-10-13T18:53:42.820Z,9.15
2017-10-13T18:56:17.022Z,8.25
2017-10-13T18:58:51.820Z,11.55
2017-10-13T19:01:25.736Z,13.48
2017-10-13T19:03:59.813Z,8.90
2017-10-13T19:06:33.788Z,11.15
2017-10-13T19:09:08.616Z,6.80
2017-10-13T19:11:42.758Z,14.40
2017-10-13T19:14:16.855Z,16.08
2017-10-13T19:16:51.029Z,12.95
2017-10-13T19:19:25.382Z,22.33
2017-10-13T19:21:59.256Z,17.90
2017-10-13T19:24:33.430Z,21.98
2017-10-13T19:27:07.715Z,194.70
2017-10-13T19:29:42.422Z,285.40
2017-10-13T19:32:17.653Z,475.83
2017-10-13T19:34:52.125Z,315.27
2017-10-13T19:37:26.158Z,162.32
2017-10-13T19:40:01.051Z,91.43
2017-10-13T19:42:34.909Z,58.28
2017-10-13T19:45:09.148Z,32.95
2017-10-13T19:47:42.851Z,35.75
2017-10-13T19:50:17.581Z,35.35
2017-10-13T19:52:51.607Z,19.83
2017-10-13T19:55:25.703Z,16.35
2017-10-13T19:58:00.608Z,12.37
2017-10-13T20:00:34.515Z,14.18
2017-10-13T20:03:09.439Z,31.73
2017-10-13T20:05:43.357Z,25.83
2017-10-13T20:08:17.519Z,61.60
2017-10-13T20:10:51.481Z,55.50
2017-10-13T20:13:25.654Z,36.42
2017-10-13T20:16:00.549Z,52.08
2017-10-13T20:18:34.719Z,23.55
2017-10-13T20:21:09.029Z,27.55
2017-10-13T20:23:43.272Z,41.70
2017-10-13T20:26:17.575Z,40.08
2017-10-13T20:28:52.076Z,50.10
2017-10-13T20:31:26.306Z,35.92
2017-10-13T20:34:01.117Z,28.15
2017-10-13T20:36:37.295Z,20.25
2017-10-13T20:39:14.121Z,42.03
2017-10-13T20:41:48.383Z,70.85
2017-10-13T20:44:23.823Z,25.77
2017-10-13T20:46:57.761Z,50.92
2017-10-13T20:49:31.878Z,36.63
2017-10-13T20:52:07.175Z,18.37
2017-10-13T20:54:42.157Z,52.92
2017-10-13T20:57:15.986Z,36.90
2017-10-13T20:59:50.675Z,44.78
2017-10-13T21:02:24.738Z,40.22
2017-10-13T21:04:58.723Z,25.83
2017-10-13T21:07:32.553Z,38.20
2017-10-13T21:10:06.619Z,50.65
2017-10-13T21:12:40.605Z,54.80
2017-10-13T21:15:15.558Z,42.05
2017-10-13T21:17:49.650Z,42.97
2017-10-13T21:20:23.727Z,13.60
2017-10-13T21:22:57.659Z,32.33
2017-10-13T21:25:31.534Z,43.60
2017-10-13T21:28:05.723Z,53.38
2017-10-13T21:30:40.261Z,59.22
2017-10-13T21:33:14.475Z,71.57
2017-10-13T21:35:48.519Z,40.42
2017-10-13T21:38:25.031Z,52.85
2017-10-13T21:41:00.491Z,46.58
2017-10-13T21:43:34.661Z,86.22
2017-10-13T21:46:08.588Z,42.50
2017-10-13T21:48:43.683Z,38.67
2017-10-13T21:51:17.509Z,59.83
2017-10-13T21:53:51.621Z,54.13
2017-10-13T21:56:25.652Z,43.20
2017-10-13T21:59:00.604Z,86.25
2017-10-13T22:01:34.659Z,29.23
2017-10-13T22:04:08.597Z,88.00
2017-10-13T22:06:42.799Z,51.85
2017-10-13T22:09:17.679Z,56.35
2017-10-13T22:11:52.019Z,33.15
2017-10-13T22:14:26.069Z,32.00
2017-10-13T22:16:59.717Z,38.45
2017-10-13T22:19:34.444Z,61.85
2017-10-13T22:22:08.507Z,41.28
2017-10-13T22:24:43.499Z,54.88
2017-10-13T22:27:18.390Z,28.62
2017-10-13T22:29:53.163Z,27.98
2017-10-13T22:32:28.327Z,32.92
2017-10-13T22:35:02.343Z,37.83
2017-10-13T22:37:36.336Z,42.80
2017-10-13T22:40:11.085Z,57.17
2017-10-13T22:42:44.955Z,30.20
2017-10-13T22:45:19.458Z,28.30
2017-10-13T22:47:54.108Z,35.92
2017-10-13T22:50:28.186Z,51.88
2017-10-13T22:53:02.900Z,49.13
2017-10-13T22:55:36.656Z,27.23
2017-10-13T22:58:10.907Z,35.75
2017-10-13T23:00:45.780Z,29.02
2017-10-13T23:03:19.874Z,34.97
2017-10-13T23:05:53.981Z,28.20
2017-10-13T23:08:28.103Z,29.52
2017-10-13T23:11:01.884Z,19.23
2017-10-13T23:13:36.324Z,41.45
2017-10-13T23:16:10.103Z,26.08
2017-10-13T23:18:43.835Z,26.30
2017-10-13T23:21:17.894Z,21.77
2017-10-13T23:23:51.836Z,25.37
2017-10-13T23:26:25.615Z,31.40
2017-10-13T23:28:59.414Z,38.40
2017-10-13T23:31:33.178Z,20.33
2017-10-13T23:34:07.655Z,35.17
2017-10-13T23:36:41.359Z,50.38
2017-10-13T23:39:15.942Z,27.65
2017-10-13T23:41:49.793Z,36.08
2017-10-13T23:44:23.855Z,64.93
2017-10-13T23:46:57.773Z,41.28
2017-10-13T23:49:31.576Z,38.70
2017-10-13T23:52:05.499Z,56.22
2017-10-13T23:54:40.415Z,28.35
2017-10-13T23:57:14.260Z,44.30
2017-10-13T23:59:48.253Z,47.55
